sensor_id;sensor_type;location;lat;lon;timestamp;temperature;humidity
18337;DHT22;9294;51.106;7.028;2023-04-15T00:00:43;20.40;80.80
18337;DHT22;9294;51.106;7.028;2023-04-15T00:03:09;20.50;80.80
18337;DHT22;9294;51.106;7.028;2023-04-15T00:05:36;20.50;80.90
18337;DHT22;9294;51.106;7.028;2023-04-15T00:08:04;20.50;80.90
18337;DHT22;9294;51.106;7.028;2023-04-15T00:10:32;20.40;80.90
18337;DHT22;9294;51.106;7.028;2023-04-15T00:12:59;20.40;80.90
18337;DHT22;9294;51.106;7.028;2023-04-15T00:15:26;20.40;81.00
18337;DHT22;9294;51.106;7.028;2023-04-15T00:17:53;20.40;81.10
18337;DHT22;9294;51.106;7.028;2023-04-15T00:20:19;20.40;81.00
18337;DHT22;9294;51.106;7.028;2023-04-15T00:22:46;20.40;81.10
18337;DHT22;9294;51.106;7.028;2023-04-15T00:25:14;20.40;81.00
18337;DHT22;9294;51.106;7.028;2023-04-15T00:27:41;20.40;81.00
18337;DHT22;9294;51.106;7.028;2023-04-15T00:30:08;20.40;81.10
18337;DHT22;9294;51.106;7.028;2023-04-15T00:32:36;20.30;81.00
18337;DHT22;9294;51.106;7.028;2023-04-15T00:35:03;20.40;80.30
18337;DHT22;9294;51.106;7.028;2023-04-15T00:37:30;20.40;81.10
18337;DHT22;9294;51.106;7.028;2023-04-15T00:39:56;20.40;81.10
18337;DHT22;9294;51.106;7.028;2023-04-15T00:42:24;20.40;81.10
18337;DHT22;9294;51.106;7.028;2023-04-15T00:44:51;20.40;80.40
18337;DHT22;9294;51.106;7.028;2023-04-15T00:47:18;20.30;81.00
18337;DHT22;9294;51.106;7.028;2023-04-15T00:49:45;20.30;81.00
18337;DHT22;9294;51.106;7.028;2023-04-15T00:52:12;20.30;81.00
18337;DHT22;9294;51.106;7.028;2023-04-15T00:54:39;20.30;81.10
18337;DHT22;9294;51.106;7.028;2023-04-15T00:57:06;20.30;81.30
18337;DHT22;9294;51.106;7.028;2023-04-15T00:59:34;20.30;81.10
18337;DHT22;9294;51.106;7.028;2023-04-15T01:02:01;20.30;81.20
18337;DHT22;9294;51.106;7.028;2023-04-15T01:04:29;20.30;81.10
18337;DHT22;9294;51.106;7.028;2023-04-15T01:06:56;20.30;81.20
18337;DHT22;9294;51.106;7.028;2023-04-15T01:09:23;20.20;81.20
18337;DHT22;9294;51.106;7.028;2023-04-15T01:11:50;20.20;81.20
18337;DHT22;9294;51.106;7.028;2023-04-15T01:14:16;20.20;81.10
18337;DHT22;9294;51.106;7.028;2023-04-15T01:16:45;20.20;81.40
18337;DHT22;9294;51.106;7.028;2023-04-15T01:19:13;20.20;81.50
18337;DHT22;9294;51.106;7.028;2023-04-15T01:21:41;20.10;81.70
18337;DHT22;9294;51.106;7.028;2023-04-15T01:24:09;20.10;81.70
18337;DHT22;9294;51.106;7.028;2023-04-15T01:26:38;20.10;81.70
18337;DHT22;9294;51.106;7.028;2023-04-15T01:29:05;20.10;81.00
18337;DHT22;9294;51.106;7.028;2023-04-15T01:31:32;20.10;81.80
18337;DHT22;9294;51.106;7.028;2023-04-15T01:33:59;20.10;81.80
18337;DHT22;9294;51.106;7.028;2023-04-15T01:36:26;20.10;81.80
18337;DHT22;9294;51.106;7.028;2023-04-15T01:38:54;20.10;81.80
18337;DHT22;9294;51.106;7.028;2023-04-15T01:41:24;20.10;81.80
18337;DHT22;9294;51.106;7.028;2023-04-15T01:43:52;20.10;81.80
18337;DHT22;9294;51.106;7.028;2023-04-15T01:46:19;20.00;81.80
18337;DHT22;9294;51.106;7.028;2023-04-15T01:48:45;20.00;81.70
18337;DHT22;9294;51.106;7.028;2023-04-15T01:51:12;20.00;81.80
18337;DHT22;9294;51.106;7.028;2023-04-15T01:53:39;20.00;81.90
18337;DHT22;9294;51.106;7.028;2023-04-15T01:56:06;20.10;81.80
18337;DHT22;9294;51.106;7.028;2023-04-15T01:58:33;20.10;81.80
18337;DHT22;9294;51.106;7.028;2023-04-15T02:01:01;20.10;81.80
18337;DHT22;9294;51.106;7.028;2023-04-15T02:03:28;20.10;81.80
18337;DHT22;9294;51.106;7.028;2023-04-15T02:05:55;20.10;81.70
18337;DHT22;9294;51.106;7.028;2023-04-15T02:08:22;20.10;81.70
18337;DHT22;9294;51.106;7.028;2023-04-15T02:10:49;20.10;81.60
18337;DHT22;9294;51.106;7.028;2023-04-15T02:13:16;20.10;81.60
18337;DHT22;9294;51.106;7.028;2023-04-15T02:15:46;20.10;81.50
18337;DHT22;9294;51.106;7.028;2023-04-15T02:18:14;20.10;81.40
18337;DHT22;9294;51.106;7.028;2023-04-15T02:20:41;20.10;81.60
18337;DHT22;9294;51.106;7.028;2023-04-15T02:23:08;20.10;81.40
18337;DHT22;9294;51.106;7.028;2023-04-15T02:25:35;20.10;81.50
18337;DHT22;9294;51.106;7.028;2023-04-15T02:28:03;20.10;81.40
18337;DHT22;9294;51.106;7.028;2023-04-15T02:30:30;20.10;81.40
18337;DHT22;9294;51.106;7.028;2023-04-15T02:32:57;20.10;81.40
18337;DHT22;9294;51.106;7.028;2023-04-15T02:35:25;20.10;81.40
18337;DHT22;9294;51.106;7.028;2023-04-15T02:37:52;20.10;81.60
18337;DHT22;9294;51.106;7.028;2023-04-15T02:40:19;20.10;81.70
18337;DHT22;9294;51.106;7.028;2023-04-15T02:42:46;20.10;81.60
18337;DHT22;9294;51.106;7.028;2023-04-15T02:45:12;20.10;81.70
18337;DHT22;9294;51.106;7.028;2023-04-15T02:47:40;20.00;81.60
18337;DHT22;9294;51.106;7.028;2023-04-15T02:50:09;20.00;81.50
18337;DHT22;9294;51.106;7.028;2023-04-15T02:52:38;20.00;81.70
18337;DHT22;9294;51.106;7.028;2023-04-15T02:55:06;20.00;80.80
18337;DHT22;9294;51.106;7.028;2023-04-15T02:57:34;20.00;81.60
18337;DHT22;9294;51.106;7.028;2023-04-15T03:00:02;20.00;81.60
18337;DHT22;9294;51.106;7.028;2023-04-15T03:02:33;20.00;81.60
18337;DHT22;9294;51.106;7.028;2023-04-15T03:04:59;20.00;80.90
18337;DHT22;9294;51.106;7.028;2023-04-15T03:07:26;20.00;81.60
18337;DHT22;9294;51.106;7.028;2023-04-15T03:09:54;20.00;81.60
18337;DHT22;9294;51.106;7.028;2023-04-15T03:12:21;20.00;81.60
18337;DHT22;9294;51.106;7.028;2023-04-15T03:14:48;19.90;81.00
18337;DHT22;9294;51.106;7.028;2023-04-15T03:17:14;19.90;81.60
18337;DHT22;9294;51.106;7.028;2023-04-15T03:19:41;19.90;81.60
18337;DHT22;9294;51.106;7.028;2023-04-15T03:22:08;20.00;81.70
18337;DHT22;9294;51.106;7.028;2023-04-15T03:24:35;20.00;81.60
18337;DHT22;9294;51.106;7.028;2023-04-15T03:27:03;19.90;81.60
18337;DHT22;9294;51.106;7.028;2023-04-15T03:29:30;19.90;81.60
18337;DHT22;9294;51.106;7.028;2023-04-15T03:31:57;19.90;81.60
18337;DHT22;9294;51.106;7.028;2023-04-15T03:34:24;19.90;81.60
18337;DHT22;9294;51.106;7.028;2023-04-15T03:36:50;19.90;81.60
18337;DHT22;9294;51.106;7.028;2023-04-15T03:39:17;19.90;81.70
18337;DHT22;9294;51.106;7.028;2023-04-15T03:41:44;19.90;81.60
18337;DHT22;9294;51.106;7.028;2023-04-15T03:44:12;19.90;81.70
18337;DHT22;9294;51.106;7.028;2023-04-15T03:46:39;19.90;81.70
18337;DHT22;9294;51.106;7.028;2023-04-15T03:49:06;19.90;81.70
18337;DHT22;9294;51.106;7.028;2023-04-15T03:51:33;19.90;81.70
18337;DHT22;9294;51.106;7.028;2023-04-15T03:54:00;19.90;81.70
18337;DHT22;9294;51.106;7.028;2023-04-15T03:56:26;19.80;81.70
18337;DHT22;9294;51.106;7.028;2023-04-15T03:58:53;19.80;81.70
18337;DHT22;9294;51.106;7.028;2023-04-15T04:01:21;19.80;81.60
18337;DHT22;9294;51.106;7.028;2023-04-15T04:03:48;19.80;81.60
18337;DHT22;9294;51.106;7.028;2023-04-15T04:06:15;19.80;81.60
18337;DHT22;9294;51.106;7.028;2023-04-15T04:08:42;19.80;81.70
18337;DHT22;9294;51.106;7.028;2023-04-15T04:11:09;19.80;81.70
18337;DHT22;9294;51.106;7.028;2023-04-15T04:13:35;19.80;81.70
18337;DHT22;9294;51.106;7.028;2023-04-15T04:16:02;19.80;81.70
18337;DHT22;9294;51.106;7.028;2023-04-15T04:18:31;19.80;81.70
18337;DHT22;9294;51.106;7.028;2023-04-15T04:20:57;19.80;81.70
18337;DHT22;9294;51.106;7.028;2023-04-15T04:23:24;19.70;81.60
18337;DHT22;9294;51.106;7.028;2023-04-15T04:25:51;19.80;81.80
18337;DHT22;9294;51.106;7.028;2023-04-15T04:28:18;19.80;81.80
18337;DHT22;9294;51.106;7.028;2023-04-15T04:30:44;19.80;81.80
18337;DHT22;9294;51.106;7.028;2023-04-15T04:33:11;19.80;81.80
18337;DHT22;9294;51.106;7.028;2023-04-15T04:35:39;19.80;81.70
18337;DHT22;9294;51.106;7.028;2023-04-15T04:38:06;19.80;81.80
18337;DHT22;9294;51.106;7.028;2023-04-15T04:40:33;19.80;81.80
18337;DHT22;9294;51.106;7.028;2023-04-15T04:43:00;19.70;81.70
18337;DHT22;9294;51.106;7.028;2023-04-15T04:45:26;19.70;81.70
18337;DHT22;9294;51.106;7.028;2023-04-15T04:47:53;19.80;81.80
18337;DHT22;9294;51.106;7.028;2023-04-15T04:50:20;19.70;81.70
18337;DHT22;9294;51.106;7.028;2023-04-15T04:52:48;19.70;81.70
18337;DHT22;9294;51.106;7.028;2023-04-15T04:55:15;19.70;81.80
18337;DHT22;9294;51.106;7.028;2023-04-15T04:57:41;19.70;81.80
18337;DHT22;9294;51.106;7.028;2023-04-15T05:00:09;19.70;81.80
18337;DHT22;9294;51.106;7.028;2023-04-15T05:02:37;19.70;81.80
18337;DHT22;9294;51.106;7.028;2023-04-15T05:05:04;19.70;81.10
18337;DHT22;9294;51.106;7.028;2023-04-15T05:07:31;19.70;81.80
18337;DHT22;9294;51.106;7.028;2023-04-15T05:09:59;19.70;81.90
18337;DHT22;9294;51.106;7.028;2023-04-15T05:12:26;19.70;81.90
18337;DHT22;9294;51.106;7.028;2023-04-15T05:14:52;19.80;81.50
18337;DHT22;9294;51.106;7.028;2023-04-15T05:17:19;19.80;82.10
18337;DHT22;9294;51.106;7.028;2023-04-15T05:19:46;19.80;82.00
18337;DHT22;9294;51.106;7.028;2023-04-15T05:22:13;19.90;81.90
18337;DHT22;9294;51.106;7.028;2023-04-15T05:24:40;19.90;81.70
18337;DHT22;9294;51.106;7.028;2023-04-15T05:27:08;20.00;81.60
18337;DHT22;9294;51.106;7.028;2023-04-15T05:29:36;20.00;81.60
18337;DHT22;9294;51.106;7.028;2023-04-15T05:32:02;20.10;81.40
18337;DHT22;9294;51.106;7.028;2023-04-15T05:34:30;20.10;81.30
18337;DHT22;9294;51.106;7.028;2023-04-15T05:36:57;20.10;81.10
18337;DHT22;9294;51.106;7.028;2023-04-15T05:39:24;20.20;80.90
18337;DHT22;9294;51.106;7.028;2023-04-15T05:41:51;20.30;80.90
18337;DHT22;9294;51.106;7.028;2023-04-15T05:44:19;20.30;80.60
18337;DHT22;9294;51.106;7.028;2023-04-15T05:46:45;20.40;80.60
18337;DHT22;9294;51.106;7.028;2023-04-15T05:49:12;20.40;80.30
18337;DHT22;9294;51.106;7.028;2023-04-15T05:51:39;20.50;80.20
18337;DHT22;9294;51.106;7.028;2023-04-15T05:54:05;20.50;80.00
18337;DHT22;9294;51.106;7.028;2023-04-15T05:56:32;20.60;79.80
18337;DHT22;9294;51.106;7.028;2023-04-15T05:58:59;20.60;79.60
18337;DHT22;9294;51.106;7.028;2023-04-15T06:01:27;20.70;79.50
18337;DHT22;9294;51.106;7.028;2023-04-15T06:03:54;22.20;80.90
18337;DHT22;9294;51.106;7.028;2023-04-15T06:06:21;20.80;79.20
18337;DHT22;9294;51.106;7.028;2023-04-15T06:08:48;20.80;79.10
18337;DHT22;9294;51.106;7.028;2023-04-15T06:11:14;20.90;79.10
18337;DHT22;9294;51.106;7.028;2023-04-15T06:13:41;20.90;78.80
18337;DHT22;9294;51.106;7.028;2023-04-15T06:16:08;20.90;78.70
18337;DHT22;9294;51.106;7.028;2023-04-15T06:18:36;20.90;78.70
18337;DHT22;9294;51.106;7.028;2023-04-15T06:21:03;20.90;78.70
18337;DHT22;9294;51.106;7.028;2023-04-15T06:23:30;20.90;78.70
18337;DHT22;9294;51.106;7.028;2023-04-15T06:25:59;20.90;78.70
18337;DHT22;9294;51.106;7.028;2023-04-15T06:28:26;20.90;78.60
18337;DHT22;9294;51.106;7.028;2023-04-15T06:30:52;20.90;78.70
18337;DHT22;9294;51.106;7.028;2023-04-15T06:33:20;20.90;78.70
18337;DHT22;9294;51.106;7.028;2023-04-15T06:35:48;20.90;78.80
18337;DHT22;9294;51.106;7.028;2023-04-15T06:38:15;20.90;78.60
18337;DHT22;9294;51.106;7.028;2023-04-15T06:40:42;20.90;78.60
18337;DHT22;9294;51.106;7.028;2023-04-15T06:43:08;20.90;78.50
18337;DHT22;9294;51.106;7.028;2023-04-15T06:45:35;20.90;78.60
18337;DHT22;9294;51.106;7.028;2023-04-15T06:48:02;20.90;78.50
18337;DHT22;9294;51.106;7.028;2023-04-15T06:50:29;20.90;78.60
18337;DHT22;9294;51.106;7.028;2023-04-15T06:52:58;20.90;78.60
18337;DHT22;9294;51.106;7.028;2023-04-15T06:55:25;20.90;78.60
18337;DHT22;9294;51.106;7.028;2023-04-15T06:57:51;20.90;78.60
18337;DHT22;9294;51.106;7.028;2023-04-15T07:00:18;20.90;78.60
18337;DHT22;9294;51.106;7.028;2023-04-15T07:02:45;20.90;78.70
18337;DHT22;9294;51.106;7.028;2023-04-15T07:05:13;20.90;78.60
18337;DHT22;9294;51.106;7.028;2023-04-15T07:07:40;20.90;78.70
18337;DHT22;9294;51.106;7.028;2023-04-15T07:10:08;20.90;78.70
18337;DHT22;9294;51.106;7.028;2023-04-15T07:12:36;20.90;78.70
18337;DHT22;9294;51.106;7.028;2023-04-15T07:15:04;20.90;78.00
18337;DHT22;9294;51.106;7.028;2023-04-15T07:17:31;20.90;78.70
18337;DHT22;9294;51.106;7.028;2023-04-15T07:19:57;20.80;78.60
18337;DHT22;9294;51.106;7.028;2023-04-15T07:22:24;20.80;78.60
18337;DHT22;9294;51.106;7.028;2023-04-15T07:24:51;20.80;77.90
18337;DHT22;9294;51.106;7.028;2023-04-15T07:27:19;20.80;78.60
18337;DHT22;9294;51.106;7.028;2023-04-15T07:29:46;20.80;78.60
18337;DHT22;9294;51.106;7.028;2023-04-15T07:32:13;20.80;78.70
18337;DHT22;9294;51.106;7.028;2023-04-15T07:34:40;20.80;78.60
18337;DHT22;9294;51.106;7.028;2023-04-15T07:37:07;20.80;78.80
18337;DHT22;9294;51.106;7.028;2023-04-15T07:39:34;20.80;78.80
18337;DHT22;9294;51.106;7.028;2023-04-15T07:42:01;20.80;78.70
18337;DHT22;9294;51.106;7.028;2023-04-15T07:44:29;20.80;78.80
18337;DHT22;9294;51.106;7.028;2023-04-15T07:46:56;20.80;78.80
18337;DHT22;9294;51.106;7.028;2023-04-15T07:49:23;20.80;78.60
18337;DHT22;9294;51.106;7.028;2023-04-15T07:51:50;20.80;78.80
18337;DHT22;9294;51.106;7.028;2023-04-15T07:54:16;20.90;78.70
18337;DHT22;9294;51.106;7.028;2023-04-15T07:56:43;20.80;78.60
18337;DHT22;9294;51.106;7.028;2023-04-15T07:59:10;20.80;78.70
18337;DHT22;9294;51.106;7.028;2023-04-15T08:01:38;20.80;78.60
18337;DHT22;9294;51.106;7.028;2023-04-15T08:04:05;20.90;78.70
18337;DHT22;9294;51.106;7.028;2023-04-15T08:06:32;20.80;78.50
18337;DHT22;9294;51.106;7.028;2023-04-15T08:08:59;20.90;78.70
18337;DHT22;9294;51.106;7.028;2023-04-15T08:11:26;20.80;78.60
18337;DHT22;9294;51.106;7.028;2023-04-15T08:13:53;20.80;78.60
18337;DHT22;9294;51.106;7.028;2023-04-15T08:16:21;20.80;78.60
18337;DHT22;9294;51.106;7.028;2023-04-15T08:18:51;20.80;78.60
18337;DHT22;9294;51.106;7.028;2023-04-15T08:21:19;20.80;78.60
18337;DHT22;9294;51.106;7.028;2023-04-15T08:23:47;20.80;78.60
18337;DHT22;9294;51.106;7.028;2023-04-15T08:26:15;20.90;78.70
18337;DHT22;9294;51.106;7.028;2023-04-15T08:28:43;20.80;77.90
18337;DHT22;9294;51.106;7.028;2023-04-15T08:31:11;20.80;78.80
18337;DHT22;9294;51.106;7.028;2023-04-15T08:33:37;20.80;78.70
18337;DHT22;9294;51.106;7.028;2023-04-15T08:36:06;20.80;78.80
18337;DHT22;9294;51.106;7.028;2023-04-15T08:38:33;20.80;78.80
18337;DHT22;9294;51.106;7.028;2023-04-15T08:41:03;20.80;78.80
18337;DHT22;9294;51.106;7.028;2023-04-15T08:43:33;20.80;78.80
18337;DHT22;9294;51.106;7.028;2023-04-15T08:46:00;20.80;78.80
18337;DHT22;9294;51.106;7.028;2023-04-15T08:48:28;20.80;78.80
18337;DHT22;9294;51.106;7.028;2023-04-15T08:50:55;20.80;78.90
18337;DHT22;9294;51.106;7.028;2023-04-15T08:53:27;20.80;78.90
18337;DHT22;9294;51.106;7.028;2023-04-15T08:55:56;20.70;78.80
18337;DHT22;9294;51.106;7.028;2023-04-15T08:58:23;20.70;78.90
18337;DHT22;9294;51.106;7.028;2023-04-15T09:00:50;20.80;79.00
18337;DHT22;9294;51.106;7.028;2023-04-15T09:03:17;20.70;78.80
18337;DHT22;9294;51.106;7.028;2023-04-15T09:05:46;20.80;78.90
18337;DHT22;9294;51.106;7.028;2023-04-15T09:08:13;20.80;78.80
18337;DHT22;9294;51.106;7.028;2023-04-15T09:10:41;20.80;78.80
18337;DHT22;9294;51.106;7.028;2023-04-15T09:13:08;20.80;78.90
18337;DHT22;9294;51.106;7.028;2023-04-15T09:15:37;20.80;78.70
18337;DHT22;9294;51.106;7.028;2023-04-15T09:18:04;20.80;78.80
18337;DHT22;9294;51.106;7.028;2023-04-15T09:20:38;20.80;78.70
18337;DHT22;9294;51.106;7.028;2023-04-15T09:23:11;20.80;78.70
18337;DHT22;9294;51.106;7.028;2023-04-15T09:25:39;20.80;78.70
18337;DHT22;9294;51.106;7.028;2023-04-15T09:28:08;20.80;78.80
18337;DHT22;9294;51.106;7.028;2023-04-15T09:30:35;20.80;78.80
18337;DHT22;9294;51.106;7.028;2023-04-15T09:33:02;20.80;78.80
18337;DHT22;9294;51.106;7.028;2023-04-15T09:35:33;20.80;78.80
18337;DHT22;9294;51.106;7.028;2023-04-15T09:38:02;20.80;78.80
18337;DHT22;9294;51.106;7.028;2023-04-15T09:40:34;20.80;78.80
18337;DHT22;9294;51.106;7.028;2023-04-15T09:43:01;20.80;78.80
18337;DHT22;9294;51.106;7.028;2023-04-15T09:45:30;20.80;78.70
18337;DHT22;9294;51.106;7.028;2023-04-15T09:47:57;20.80;78.70
18337;DHT22;9294;51.106;7.028;2023-04-15T09:50:27;20.80;78.70
18337;DHT22;9294;51.106;7.028;2023-04-15T09:52:54;20.80;78.60
18337;DHT22;9294;51.106;7.028;2023-04-15T09:55:21;20.90;78.70
18337;DHT22;9294;51.106;7.028;2023-04-15T09:57:48;20.80;78.60
18337;DHT22;9294;51.106;7.028;2023-04-15T10:00:15;20.80;78.60
18337;DHT22;9294;51.106;7.028;2023-04-15T10:02:44;20.80;78.60
18337;DHT22;9294;51.106;7.028;2023-04-15T10:05:13;20.80;78.60
18337;DHT22;9294;51.106;7.028;2023-04-15T10:07:41;20.80;78.60
18337;DHT22;9294;51.106;7.028;2023-04-15T10:10:08;20.80;78.70
18337;DHT22;9294;51.106;7.028;2023-04-15T10:12:36;20.90;78.70
18337;DHT22;9294;51.106;7.028;2023-04-15T10:15:04;20.80;77.90
18337;DHT22;9294;51.106;7.028;2023-04-15T10:17:33;20.80;78.70
18337;DHT22;9294;51.106;7.028;2023-04-15T10:20:04;20.80;78.70
18337;DHT22;9294;51.106;7.028;2023-04-15T10:22:32;20.80;78.70
18337;DHT22;9294;51.106;7.028;2023-04-15T10:24:59;20.80;78.00
18337;DHT22;9294;51.106;7.028;2023-04-15T10:27:26;20.80;78.90
18337;DHT22;9294;51.106;7.028;2023-04-15T10:29:54;20.80;78.80
18337;DHT22;9294;51.106;7.028;2023-04-15T10:32:23;20.80;78.80
18337;DHT22;9294;51.106;7.028;2023-04-15T10:34:51;20.80;78.20
18337;DHT22;9294;51.106;7.028;2023-04-15T10:37:33;20.80;78.90
18337;DHT22;9294;51.106;7.028;2023-04-15T10:40:00;20.80;78.90
18337;DHT22;9294;51.106;7.028;2023-04-15T10:42:33;20.80;78.90
18337;DHT22;9294;51.106;7.028;2023-04-15T10:45:00;20.80;78.00
18337;DHT22;9294;51.106;7.028;2023-04-15T10:47:27;20.80;78.80
18337;DHT22;9294;51.106;7.028;2023-04-15T10:49:57;20.80;78.80
18337;DHT22;9294;51.106;7.028;2023-04-15T10:52:27;20.80;78.80
18337;DHT22;9294;51.106;7.028;2023-04-15T10:55:01;20.80;78.00
18337;DHT22;9294;51.106;7.028;2023-04-15T10:57:33;20.80;78.70
18337;DHT22;9294;51.106;7.028;2023-04-15T11:00:08;20.80;78.70
18337;DHT22;9294;51.106;7.028;2023-04-15T11:02:43;20.80;78.80
18337;DHT22;9294;51.106;7.028;2023-04-15T11:05:11;20.80;79.50
18337;DHT22;9294;51.106;7.028;2023-04-15T11:07:46;20.80;78.70
18337;DHT22;9294;51.106;7.028;2023-04-15T11:13:22;20.80;78.60
18337;DHT22;9294;51.106;7.028;2023-04-15T11:15:50;20.80;78.80
18337;DHT22;9294;51.106;7.028;2023-04-15T11:18:19;20.80;78.80
18337;DHT22;9294;51.106;7.028;2023-04-15T11:20:47;20.80;78.80
18337;DHT22;9294;51.106;7.028;2023-04-15T11:23:19;20.80;78.80
18337;DHT22;9294;51.106;7.028;2023-04-15T11:25:46;20.80;79.50
18337;DHT22;9294;51.106;7.028;2023-04-15T11:28:13;20.80;78.80
18337;DHT22;9294;51.106;7.028;2023-04-15T11:30:41;20.80;78.80
18337;DHT22;9294;51.106;7.028;2023-04-15T11:33:09;20.80;78.90
18337;DHT22;9294;51.106;7.028;2023-04-15T11:35:36;20.80;78.80
18337;DHT22;9294;51.106;7.028;2023-04-15T11:38:08;20.80;78.90
18337;DHT22;9294;51.106;7.028;2023-04-15T11:40:36;20.80;78.90
18337;DHT22;9294;51.106;7.028;2023-04-15T11:43:05;20.80;78.90
18337;DHT22;9294;51.106;7.028;2023-04-15T11:45:32;20.80;78.90
18337;DHT22;9294;51.106;7.028;2023-04-15T11:48:07;20.80;78.90
18337;DHT22;9294;51.106;7.028;2023-04-15T11:50:34;20.80;78.90
18337;DHT22;9294;51.106;7.028;2023-04-15T11:53:02;20.80;78.90
18337;DHT22;9294;51.106;7.028;2023-04-15T11:55:30;20.70;78.90
18337;DHT22;9294;51.106;7.028;2023-04-15T11:58:11;20.70;78.90
18337;DHT22;9294;51.106;7.028;2023-04-15T12:00:40;20.80;79.00
18337;DHT22;9294;51.106;7.028;2023-04-15T12:03:15;20.70;78.90
18337;DHT22;9294;51.106;7.028;2023-04-15T12:06:01;20.70;79.00
18337;DHT22;9294;51.106;7.028;2023-04-15T12:08:49;20.80;79.00
18337;DHT22;9294;51.106;7.028;2023-04-15T12:11:17;20.80;79.00
18337;DHT22;9294;51.106;7.028;2023-04-15T12:13:47;20.70;79.10
18337;DHT22;9294;51.106;7.028;2023-04-15T12:16:16;20.80;79.10
18337;DHT22;9294;51.106;7.028;2023-04-15T12:18:44;20.80;79.90
18337;DHT22;9294;51.106;7.028;2023-04-15T12:21:11;20.80;79.10
18337;DHT22;9294;51.106;7.028;2023-04-15T12:23:39;20.80;79.00
18337;DHT22;9294;51.106;7.028;2023-04-15T12:26:13;20.80;79.10
18337;DHT22;9294;51.106;7.028;2023-04-15T12:28:39;20.80;79.10
18337;DHT22;9294;51.106;7.028;2023-04-15T12:31:08;20.80;79.00
18337;DHT22;9294;51.106;7.028;2023-04-15T12:33:35;20.80;79.10
18337;DHT22;9294;51.106;7.028;2023-04-15T12:36:03;20.80;79.10
18337;DHT22;9294;51.106;7.028;2023-04-15T12:38:30;20.80;79.10
18337;DHT22;9294;51.106;7.028;2023-04-15T12:40:57;20.80;79.10
18337;DHT22;9294;51.106;7.028;2023-04-15T12:43:24;20.70;79.20
18337;DHT22;9294;51.106;7.028;2023-04-15T12:45:51;20.70;79.10
18337;DHT22;9294;51.106;7.028;2023-04-15T12:48:19;20.80;79.10
18337;DHT22;9294;51.106;7.028;2023-04-15T12:50:46;20.70;79.00
18337;DHT22;9294;51.106;7.028;2023-04-15T12:53:12;20.70;79.00
18337;DHT22;9294;51.106;7.028;2023-04-15T12:55:39;20.70;79.10
18337;DHT22;9294;51.106;7.028;2023-04-15T12:58:06;20.70;79.10
18337;DHT22;9294;51.106;7.028;2023-04-15T13:00:33;20.70;79.20
18337;DHT22;9294;51.106;7.028;2023-04-15T13:03:00;20.70;79.20
18337;DHT22;9294;51.106;7.028;2023-04-15T13:05:28;20.70;79.20
18337;DHT22;9294;51.106;7.028;2023-04-15T13:07:55;20.70;79.10
18337;DHT22;9294;51.106;7.028;2023-04-15T13:10:22;20.70;79.20
18337;DHT22;9294;51.106;7.028;2023-04-15T13:12:49;20.80;79.30
18337;DHT22;9294;51.106;7.028;2023-04-15T13:15:18;20.70;79.20
18337;DHT22;9294;51.106;7.028;2023-04-15T13:17:45;20.70;79.30
18337;DHT22;9294;51.106;7.028;2023-04-15T13:20:12;20.70;79.20
18337;DHT22;9294;51.106;7.028;2023-04-15T13:22:41;20.70;79.20
18337;DHT22;9294;51.106;7.028;2023-04-15T13:25:08;20.70;78.40
18337;DHT22;9294;51.106;7.028;2023-04-15T13:27:35;20.70;80.00
18337;DHT22;9294;51.106;7.028;2023-04-15T13:30:02;20.70;79.30
18337;DHT22;9294;51.106;7.028;2023-04-15T13:32:28;20.70;79.20
18337;DHT22;9294;51.106;7.028;2023-04-15T13:34:55;20.70;78.50
18337;DHT22;9294;51.106;7.028;2023-04-15T13:37:25;20.70;79.20
18337;DHT22;9294;51.106;7.028;2023-04-15T13:39:54;20.70;79.20
18337;DHT22;9294;51.106;7.028;2023-04-15T13:42:21;20.70;79.20
18337;DHT22;9294;51.106;7.028;2023-04-15T13:44:48;20.80;79.20
18337;DHT22;9294;51.106;7.028;2023-04-15T13:47:15;20.80;79.20
18337;DHT22;9294;51.106;7.028;2023-04-15T13:49:42;20.70;79.20
18337;DHT22;9294;51.106;7.028;2023-04-15T13:52:09;20.70;79.10
18337;DHT22;9294;51.106;7.028;2023-04-15T13:54:36;20.70;79.20
18337;DHT22;9294;51.106;7.028;2023-04-15T13:57:05;20.70;79.20
18337;DHT22;9294;51.106;7.028;2023-04-15T13:59:32;20.70;79.20
18337;DHT22;9294;51.106;7.028;2023-04-15T14:01:58;20.80;79.30
18337;DHT22;9294;51.106;7.028;2023-04-15T14:04:25;20.70;79.20
18337;DHT22;9294;51.106;7.028;2023-04-15T14:06:52;20.70;79.20
18337;DHT22;9294;51.106;7.028;2023-04-15T14:09:19;20.70;79.20
18337;DHT22;9294;51.106;7.028;2023-04-15T14:11:46;20.70;79.20
18337;DHT22;9294;51.106;7.028;2023-04-15T14:14:14;20.70;79.20
18337;DHT22;9294;51.106;7.028;2023-04-15T14:16:41;20.70;79.20
18337;DHT22;9294;51.106;7.028;2023-04-15T14:19:08;20.70;79.30
18337;DHT22;9294;51.106;7.028;2023-04-15T14:21:34;20.70;79.20
18337;DHT22;9294;51.106;7.028;2023-04-15T14:24:01;20.70;79.30
18337;DHT22;9294;51.106;7.028;2023-04-15T14:26:28;20.70;79.30
18337;DHT22;9294;51.106;7.028;2023-04-15T14:28:54;20.70;79.30
18337;DHT22;9294;51.106;7.028;2023-04-15T14:31:22;20.70;79.30
18337;DHT22;9294;51.106;7.028;2023-04-15T14:33:49;20.70;79.30
18337;DHT22;9294;51.106;7.028;2023-04-15T14:36:16;20.70;79.30
18337;DHT22;9294;51.106;7.028;2023-04-15T14:38:43;20.70;79.30
18337;DHT22;9294;51.106;7.028;2023-04-15T14:41:10;20.70;79.40
18337;DHT22;9294;51.106;7.028;2023-04-15T14:43:36;20.70;79.40
18337;DHT22;9294;51.106;7.028;2023-04-15T14:46:03;20.70;79.50
18337;DHT22;9294;51.106;7.028;2023-04-15T14:48:31;20.70;79.60
18337;DHT22;9294;51.106;7.028;2023-04-15T14:50:58;20.70;79.50
18337;DHT22;9294;51.106;7.028;2023-04-15T14:53:25;20.70;79.50
18337;DHT22;9294;51.106;7.028;2023-04-15T14:55:52;20.70;79.50
18337;DHT22;9294;51.106;7.028;2023-04-15T14:58:18;20.70;79.50
18337;DHT22;9294;51.106;7.028;2023-04-15T15:00:45;20.70;79.50
18337;DHT22;9294;51.106;7.028;2023-04-15T15:03:12;20.70;79.50
18337;DHT22;9294;51.106;7.028;2023-04-15T15:05:41;20.70;79.50
18337;DHT22;9294;51.106;7.028;2023-04-15T15:08:08;20.70;79.40
18337;DHT22;9294;51.106;7.028;2023-04-15T15:10:36;20.70;79.30
18337;DHT22;9294;51.106;7.028;2023-04-15T15:13:03;20.70;79.40
18337;DHT22;9294;51.106;7.028;2023-04-15T15:15:30;20.70;79.30
18337;DHT22;9294;51.106;7.028;2023-04-15T15:17:57;20.70;79.50
18337;DHT22;9294;51.106;7.028;2023-04-15T15:20:24;20.70;79.40
18337;DHT22;9294;51.106;7.028;2023-04-15T15:22:52;20.70;79.40
18337;DHT22;9294;51.106;7.028;2023-04-15T15:25:18;20.70;79.50
18337;DHT22;9294;51.106;7.028;2023-04-15T15:27:45;20.70;79.50
18337;DHT22;9294;51.106;7.028;2023-04-15T15:30:12;20.70;79.50
18337;DHT22;9294;51.106;7.028;2023-04-15T15:32:40;20.60;79.40
18337;DHT22;9294;51.106;7.028;2023-04-15T15:35:08;20.70;78.80
18337;DHT22;9294;51.106;7.028;2023-04-15T15:37:35;20.60;79.60
18337;DHT22;9294;51.106;7.028;2023-04-15T15:40:04;20.60;79.50
18337;DHT22;9294;51.106;7.028;2023-04-15T15:42:31;20.70;79.60
18337;DHT22;9294;51.106;7.028;2023-04-15T15:44:58;20.70;78.90
18337;DHT22;9294;51.106;7.028;2023-04-15T15:47:25;19.30;78.10
18337;DHT22;9294;51.106;7.028;2023-04-15T15:49:52;20.60;79.50